Fort Simpson Airport
CYFS : now visible

Airfield :











YOU CAN JOIN US ON...

 
LOGIN :

Register | Disclaimer

   EN    FR    IT 

 









Legend :    VFR   Marginal VFR   IFR   Intensive IFR   Very Intensive IFR
Visi :
Ceiling :
>= 8 km
>= 3000ft
5 to 8 km
1000 to 3000 ft
1500m to 5 km
500 to 1000 ft
800 to 1500m
200 to 500 ft
< 800m
< 200 ft
Symbols :   Thunderstorms  Fog  Heavy snow  Heavy precipitations  Wind > 20 kt






- Airport Elevation : 555 ft
- IATA code : YFS


CYFS - Fort Simpson

CURRENT METAR :
  • 250400Z 25004KT 15SM FEW140 FEW220 FEW250 25/11 A2951 RMK AC1CI1CI1 AC TR CI TR CI TR SLP996 DENSITY ALT 2400FT

EXPIRED METARs :
  • 250300Z 22004KT 190V260 15SM FEW140 FEW220 FEW250 26/11 A2951 RMK AC1CI1CI1 AC TR SLP996 DENSITY ALT 2400FT
  • 250200Z 24012KT 200V270 15SM FEW065 FEW140 FEW220 FEW250 26/10 A2951 RMK CU1AC1CI1CI1 CU TR AC TR SLP996 DENSITY ALT 2500FT

TAF TAF CYFS
Valid from the 25 at 00:00 until the 25 at 12:00 UTC


242339Z 2500/2512 25012G22KT P6SM SCT120 BKN160
BECMG 2501/2503 26006KT
FM250300 26006KT P6SM BKN080
FM251000 25005KT P6SM SKC RMK NXT FCST BY 250600Z
CZEG FIR / North America



MET'MAP, your aeronautical weather chart ! - Copyright ORBIFLY December 2007 - Disclaimer

ORBIFLY MET'MAP TEAM :

Programming & Development : Alexandra Zaïnal
Concept & original design : Baudouin d'Aumeries
Assistance for programming : Marc-Olivier Méhu
Technical & hardware support : Manuel Goepfert

Contact : metmap@orbifly.com




SOURCES & CREDITS :

   NOAA       Earth
Advisory